This is the latest recevied weather packets stored in our database for station/object IZ3TCG-13. If no packets are shown the sender has not sent any weather packets the latest 10 day(s).
| Time | Temp. | Humidity | Pressure | Rain* | Wind** | Luminosity | Snow |
|---|---|---|---|---|---|---|---|
| 1777476724 | 19.44° C | 60% | 1013.2 hPa | 0 mm | - | - | - |
| 1777475284 | 20° C | 58% | 1013 hPa | 0 mm | - | - | - |
| 1777474697 | 20.56° C | 57% | 1013.1 hPa | 0 mm | - | - | - |
| 1777473603 | 20° C | 57% | 1013.1 hPa | 0 mm | - | - | - |
| 1777472404 | 21.11° C | 54% | 1013 hPa | 0 mm | - | - | - |
| 1777471924 | 21.67° C | 53% | 1012.8 hPa | 0 mm | - | - | - |
| 1777469763 | 21.67° C | 55% | 1012.7 hPa | 0 mm | - | - | - |
| 1777467605 | 22.22° C | 53% | 1012.6 hPa | 0 mm | - | - | - |
| 1777467364 | 22.22° C | 55% | 1012.8 hPa | 0 mm | - | - | - |
| 1777466163 | 22.22° C | 54% | 1012.8 hPa | 0 mm | - | - | - |
| 1777464964 | 22.22° C | 54% | 1012.8 hPa | 0 mm | - | - | - |
| 1777462324 | 22.22° C | 51% | 1012.9 hPa | 0 mm | - | - | - |
| 1777461497 | 22.22° C | 52% | 1013.1 hPa | 0 mm | - | - | - |
| 1777460884 | 22.22° C | 52% | 1013.1 hPa | 0 mm | - | - | - |
| 1777460644 | 22.22° C | 51% | 1013 hPa | 0 mm | - | - | - |
| 1777459924 | 22.22° C | 52% | 1013 hPa | 0 mm | - | - | - |
| 1777459684 | 22.22° C | 53% | 1013.1 hPa | 0 mm | - | - | - |
| 1777458964 | 21.67° C | 54% | 1012.9 hPa | 0 mm | - | - | - |
| 1777458484 | 22.22° C | 54% | 1013.1 hPa | 0 mm | - | - | - |
| 1777457284 | 20.56° C | 56% | 1013.3 hPa | 0 mm | - | - | - |
| 1777454164 | 22.22° C | 55% | 1014.1 hPa | 0 mm | - | - | - |
| 1777453204 | 21.67° C | 57% | 1014.3 hPa | 0 mm | - | - | - |
| 1777452484 | 21.11° C | 59% | 1014.1 hPa | 0 mm | - | - | - |
| 1777452373 | 20.56° C | 57% | 1014 hPa | 0 mm | - | - | - |
| 1777452138 | 20.56° C | 57% | 1014.2 hPa | 0 mm | - | - | - |
* Rain latest hour (hover to see other rain measurements)
** Current wind speed in m/s (hover to see current wind gust speed)